createdAt,value
2022-11-24T00:01:31.280Z,99978.81
2022-11-24T00:04:16.498Z,99976.03
2022-11-24T00:07:01.635Z,99979.94
2022-11-24T00:09:46.806Z,99976.56
2022-11-24T00:12:32.131Z,99974.59
2022-11-24T00:15:16.924Z,99977.94
2022-11-24T00:18:02.011Z,99976.06
2022-11-24T00:20:52.446Z,99965.94
2022-11-24T00:23:37.817Z,99956.88
2022-11-24T00:26:26.991Z,99961.94
2022-11-24T00:29:12.052Z,99966.22
2022-11-24T00:31:57.383Z,99971.16
2022-11-24T00:34:42.439Z,99961.19
2022-11-24T00:37:27.253Z,99963.81
2022-11-24T00:40:12.364Z,99963.75
2022-11-24T00:42:57.050Z,99952.41
2022-11-24T00:45:42.750Z,99953.00
2022-11-24T00:48:28.234Z,99955.28
2022-11-24T00:51:16.854Z,99954.28
2022-11-24T00:54:02.649Z,99958.13
2022-11-24T00:56:47.722Z,99946.94
2022-11-24T00:59:32.876Z,99962.94
2022-11-24T01:02:17.834Z,99964.25
2022-11-24T01:05:03.193Z,99978.56
2022-11-24T01:07:48.417Z,99974.44
2022-11-24T01:10:33.407Z,99978.28
2022-11-24T01:13:18.277Z,99984.16
2022-11-24T01:16:03.851Z,99984.13
2022-11-24T01:18:49.359Z,99994.84
2022-11-24T01:21:34.563Z,100003.88
2022-11-24T01:24:19.608Z,100000.94
2022-11-24T01:27:04.479Z,100003.13
2022-11-24T01:29:49.587Z,99995.19
2022-11-24T01:32:36.070Z,99996.19
2022-11-24T01:35:21.229Z,99996.84
2022-11-24T01:38:06.163Z,99999.00
2022-11-24T01:41:19.528Z,99998.78
2022-11-24T01:44:25.706Z,100012.91
2022-11-24T01:47:36.785Z,100018.34
2022-11-24T01:50:22.514Z,100015.19
2022-11-24T01:53:08.352Z,100018.13
2022-11-24T01:55:53.378Z,100023.38
2022-11-24T01:58:42.414Z,100021.88
2022-11-24T02:01:29.094Z,100020.16
2022-11-24T02:04:19.652Z,100032.69
2022-11-24T02:07:07.025Z,100027.66
2022-11-24T02:09:55.565Z,100033.59
2022-11-24T02:12:45.240Z,100033.59
2022-11-24T02:15:30.257Z,100038.25
2022-11-24T02:18:14.998Z,100046.41
2022-11-24T02:21:00.958Z,100042.44
2022-11-24T02:23:48.551Z,100051.69
2022-11-24T02:26:48.647Z,100058.53
2022-11-24T02:29:33.941Z,100069.94
2022-11-24T02:32:20.187Z,100076.50
2022-11-24T02:35:06.555Z,100069.88
2022-11-24T02:37:51.587Z,100067.06
2022-11-24T02:40:37.180Z,100075.22
2022-11-24T02:43:23.410Z,100064.44
2022-11-24T02:46:10.680Z,100069.59
2022-11-24T02:48:55.742Z,100076.81
2022-11-24T02:51:40.782Z,100076.19
2022-11-24T02:54:25.655Z,100073.72
2022-11-24T02:57:11.373Z,100074.38
2022-11-24T02:59:56.707Z,100076.72
2022-11-24T03:02:41.718Z,100079.94
2022-11-24T03:05:26.467Z,100081.34
2022-11-24T03:08:12.831Z,100083.19
2022-11-24T03:10:57.702Z,100078.38
2022-11-24T03:13:42.648Z,100091.09
2022-11-24T03:16:27.803Z,100092.63
2022-11-24T03:19:12.819Z,100091.69
2022-11-24T03:21:57.773Z,100094.41
2022-11-24T03:24:42.803Z,100101.06
2022-11-24T03:27:27.976Z,100100.78
2022-11-24T03:30:13.566Z,100104.34
2022-11-24T03:32:58.547Z,100097.53
2022-11-24T03:35:43.760Z,100110.66
2022-11-24T03:38:29.047Z,100106.72
2022-11-24T03:41:13.923Z,100115.69
2022-11-24T03:43:59.090Z,100109.06
2022-11-24T03:46:44.147Z,100104.84
2022-11-24T03:49:29.137Z,100109.97
2022-11-24T03:52:13.891Z,100120.63
2022-11-24T03:54:59.001Z,100110.94
2022-11-24T03:57:43.934Z,100115.66
2022-11-24T04:00:29.073Z,100120.41
2022-11-24T04:03:13.967Z,100127.44
2022-11-24T04:05:58.839Z,100128.72
2022-11-24T04:08:44.118Z,100133.44
2022-11-24T04:11:47.974Z,100133.72
2022-11-24T04:14:33.376Z,100138.84
2022-11-24T04:17:18.881Z,100133.97
2022-11-24T04:20:05.120Z,100135.34
2022-11-24T04:22:51.686Z,100141.31
2022-11-24T04:25:37.525Z,100139.91
2022-11-24T04:28:22.474Z,100136.47
2022-11-24T04:31:07.815Z,100142.69
2022-11-24T04:33:52.722Z,100141.59
2022-11-24T04:36:37.844Z,100147.22
2022-11-24T04:39:25.985Z,100144.56
2022-11-24T04:42:13.409Z,100150.25
2022-11-24T04:44:58.253Z,100156.28
2022-11-24T04:47:43.291Z,100159.94
2022-11-24T04:50:28.432Z,100158.22
2022-11-24T04:53:13.719Z,100148.72
2022-11-24T04:55:58.493Z,100138.78
2022-11-24T04:58:43.805Z,100128.53
2022-11-24T05:01:28.897Z,100129.19
2022-11-24T05:04:15.532Z,100120.94
2022-11-24T05:07:00.305Z,100137.19
2022-11-24T05:10:05.598Z,100147.13
2022-11-24T05:12:56.067Z,100158.38
2022-11-24T05:15:41.814Z,100164.69
2022-11-24T05:18:26.964Z,100182.69
2022-11-24T05:21:12.575Z,100174.00
2022-11-24T05:23:57.870Z,100176.63
2022-11-24T05:26:42.933Z,100177.63
2022-11-24T05:29:28.041Z,100171.94
2022-11-24T05:32:12.866Z,100176.50
2022-11-24T05:34:58.183Z,100178.72
2022-11-24T05:37:42.938Z,100185.50
2022-11-24T05:40:28.285Z,100187.03
2022-11-24T05:43:15.365Z,100188.88
2022-11-24T05:46:01.365Z,100197.41
2022-11-24T05:48:46.133Z,100202.69
2022-11-24T05:51:31.350Z,100215.19
2022-11-24T05:54:16.389Z,100225.94
2022-11-24T05:57:01.550Z,100237.31
2022-11-24T05:59:46.632Z,100235.16
2022-11-24T06:02:32.096Z,100249.31
2022-11-24T06:05:17.660Z,100247.19
2022-11-24T06:08:02.569Z,100235.00
2022-11-24T06:10:47.594Z,100240.88
2022-11-24T06:13:32.843Z,100239.53
2022-11-24T06:16:19.311Z,100247.91
2022-11-24T06:19:03.993Z,100257.75
2022-11-24T06:21:49.225Z,100258.06
2022-11-24T06:24:34.494Z,100262.59
2022-11-24T06:27:19.677Z,100272.28
2022-11-24T06:30:05.443Z,100281.88
2022-11-24T06:32:54.721Z,100282.16
2022-11-24T06:35:39.825Z,100287.06
2022-11-24T06:38:24.702Z,100286.69
2022-11-24T06:41:13.346Z,100289.16
2022-11-24T06:43:58.283Z,100291.06
2022-11-24T06:46:43.574Z,100297.59
2022-11-24T06:49:28.507Z,100305.91
2022-11-24T06:52:13.550Z,100313.88
2022-11-24T06:54:58.573Z,100307.63
2022-11-24T06:57:43.713Z,100311.09
2022-11-24T07:00:31.920Z,100315.53
2022-11-24T07:03:16.954Z,100310.94
2022-11-24T07:06:01.941Z,100318.69
2022-11-24T07:08:47.631Z,100321.03
2022-11-24T07:11:32.491Z,100315.53
2022-11-24T07:14:17.396Z,100325.38
2022-11-24T07:17:02.481Z,100324.41
2022-11-24T07:19:47.336Z,100327.66
2022-11-24T07:22:32.676Z,100337.56
2022-11-24T07:25:17.743Z,100348.84
2022-11-24T07:28:03.012Z,100350.91
2022-11-24T07:30:47.947Z,100358.00
2022-11-24T07:33:32.914Z,100360.50
2022-11-24T07:36:17.835Z,100376.28
2022-11-24T07:39:05.583Z,100370.25
2022-11-24T07:41:50.479Z,100382.00
2022-11-24T07:44:35.836Z,100375.75
2022-11-24T07:47:20.904Z,100379.66
2022-11-24T07:50:09.534Z,100375.66
2022-11-24T07:52:54.758Z,100388.72
2022-11-24T07:55:39.806Z,100395.03
2022-11-24T07:58:28.871Z,100405.16
2022-11-24T08:01:17.973Z,100410.09
2022-11-24T08:04:03.061Z,100402.06
2022-11-24T08:06:48.250Z,100408.69
2022-11-24T08:09:33.560Z,100407.84
2022-11-24T08:12:22.431Z,100420.44
2022-11-24T08:15:11.170Z,100418.00
2022-11-24T08:18:00.814Z,100424.75
2022-11-24T08:20:45.983Z,100421.91
2022-11-24T08:23:31.788Z,100428.41
2022-11-24T08:26:19.105Z,100423.59
2022-11-24T08:29:04.045Z,100432.72
2022-11-24T08:31:49.208Z,100436.78
2022-11-24T08:34:34.760Z,100427.13
2022-11-24T08:37:19.741Z,100440.94
2022-11-24T08:40:05.558Z,100443.19
2022-11-24T08:42:50.593Z,100434.75
2022-11-24T08:45:41.217Z,100441.47
2022-11-24T08:48:26.647Z,100441.91
2022-11-24T08:51:14.312Z,100442.56
2022-11-24T08:54:01.249Z,100447.59
2022-11-24T08:56:48.792Z,100450.72
2022-11-24T08:59:34.058Z,100453.66
2022-11-24T09:02:18.811Z,100471.72
2022-11-24T09:05:05.339Z,100474.63
2022-11-24T09:07:55.015Z,100466.03
2022-11-24T09:10:40.025Z,100468.00
2022-11-24T09:13:24.871Z,100468.66
2022-11-24T09:16:13.033Z,100472.75
2022-11-24T09:19:00.588Z,100483.91
2022-11-24T09:21:45.361Z,100478.44
2022-11-24T09:24:30.274Z,100487.56
2022-11-24T09:27:15.068Z,100482.59
2022-11-24T09:30:00.106Z,100489.06
2022-11-24T09:32:45.138Z,100502.53
2022-11-24T09:35:30.398Z,100496.56
2022-11-24T09:38:15.401Z,100503.47
2022-11-24T09:41:29.595Z,100521.97
2022-11-24T09:44:41.938Z,100521.88
2022-11-24T09:47:39.453Z,100522.31
2022-11-24T09:50:36.506Z,100523.38
2022-11-24T09:53:44.487Z,100522.41
2022-11-24T09:56:34.402Z,100522.69
2022-11-24T09:59:24.017Z,100523.25
2022-11-24T10:02:13.203Z,100525.56
2022-11-24T10:04:58.866Z,100522.78
2022-11-24T10:07:55.085Z,100531.25
2022-11-24T10:10:54.514Z,100524.50
2022-11-24T10:14:03.987Z,100530.00
2022-11-24T10:17:01.667Z,100530.25
2022-11-24T10:20:04.798Z,100532.22
2022-11-24T10:23:18.427Z,100532.41
2022-11-24T10:26:12.643Z,100537.38
2022-11-24T10:28:57.897Z,100541.66
2022-11-24T10:31:45.859Z,100535.72
2022-11-24T10:34:37.389Z,100540.50
2022-11-24T10:37:42.167Z,100534.22
2022-11-24T10:43:43.399Z,100552.78
2022-11-24T10:46:29.981Z,100545.97
2022-11-24T10:49:21.726Z,100556.88
2022-11-24T10:52:13.725Z,100559.50
2022-11-24T10:55:01.230Z,100550.13
2022-11-24T10:57:46.469Z,100553.28
2022-11-24T11:00:34.072Z,100547.13
2022-11-24T11:03:21.756Z,100556.13
2022-11-24T11:06:13.109Z,100563.41
2022-11-24T11:09:06.859Z,100563.38
2022-11-24T11:11:53.685Z,100558.38
2022-11-24T11:14:38.803Z,100549.28
2022-11-24T11:17:35.153Z,100559.72
2022-11-24T11:20:29.269Z,100566.16
2022-11-24T11:23:19.880Z,100569.47
2022-11-24T11:26:23.648Z,100556.88
2022-11-24T11:35:36.430Z,100572.44
2022-11-24T11:38:21.276Z,100571.78
2022-11-24T11:41:11.814Z,100577.31
2022-11-24T11:44:36.566Z,100576.41
2022-11-24T11:47:27.939Z,100582.41
2022-11-24T11:50:20.510Z,100578.09
2022-11-24T11:53:20.242Z,100587.56
2022-11-24T11:56:20.815Z,100584.41
2022-11-24T11:59:42.657Z,100589.38
2022-11-24T12:03:05.390Z,100593.31
2022-11-24T12:06:03.798Z,100590.22
2022-11-24T12:09:20.429Z,100589.50
2022-11-24T12:12:30.681Z,100588.69
2022-11-24T12:15:36.442Z,100591.34
2022-11-24T12:18:56.609Z,100587.00
2022-11-24T12:21:47.170Z,100587.50
2022-11-24T12:24:59.459Z,100589.16
2022-11-24T12:28:14.559Z,100587.16
2022-11-24T12:31:09.143Z,100591.00
2022-11-24T12:34:09.719Z,100584.19
2022-11-24T12:37:31.282Z,100579.38
2022-11-24T12:40:34.452Z,100573.06
2022-11-24T12:43:30.249Z,100573.19
2022-11-24T12:46:40.604Z,100575.03
2022-11-24T12:49:37.904Z,100568.78
2022-11-24T12:52:31.283Z,100566.44
2022-11-24T12:55:20.128Z,100562.94
2022-11-24T12:58:17.014Z,100558.75
2022-11-24T13:01:22.268Z,100555.47
2022-11-24T13:04:20.885Z,100564.81
2022-11-24T13:07:43.255Z,100570.09
2022-11-24T13:10:54.690Z,100576.03
2022-11-24T13:14:00.570Z,100585.31
2022-11-24T13:17:13.432Z,100578.88
2022-11-24T13:20:15.974Z,100582.97
2022-11-24T13:23:03.414Z,100583.34
2022-11-24T13:26:15.000Z,100584.50
2022-11-24T13:29:09.269Z,100591.28
2022-11-24T13:32:05.874Z,100590.94
2022-11-24T13:34:54.757Z,100589.75
2022-11-24T13:37:39.841Z,100598.56
2022-11-24T13:40:26.285Z,100598.22
2022-11-24T13:43:11.451Z,100598.09
2022-11-24T13:45:56.374Z,100609.69
2022-11-24T13:48:59.973Z,100601.44
2022-11-24T13:51:44.921Z,100603.53
2022-11-24T13:54:30.717Z,100603.09
2022-11-24T13:57:37.948Z,100601.09
2022-11-24T14:00:28.388Z,100597.47
2022-11-24T14:03:21.753Z,100599.78
2022-11-24T14:06:13.871Z,100601.28
2022-11-24T14:09:18.867Z,100606.13
2022-11-24T14:12:12.377Z,100600.16
2022-11-24T14:15:22.274Z,100600.34
2022-11-24T14:18:17.613Z,100599.69
2022-11-24T14:21:25.436Z,100601.66
2022-11-24T14:24:24.008Z,100600.66
2022-11-24T14:27:15.218Z,100596.53
2022-11-24T14:30:02.548Z,100600.66
2022-11-24T14:33:03.923Z,100598.16
2022-11-24T14:35:50.899Z,100593.69
2022-11-24T14:38:36.065Z,100598.34
2022-11-24T14:41:28.148Z,100596.84
2022-11-24T14:44:26.500Z,100597.81
2022-11-24T14:47:31.344Z,100599.97
2022-11-24T14:50:20.569Z,100597.81
2022-11-24T14:53:13.681Z,100602.44
2022-11-24T14:56:25.670Z,100597.47
2022-11-24T14:59:25.195Z,100599.25
2022-11-24T15:02:44.486Z,100605.19
2022-11-24T15:05:52.772Z,100607.13
2022-11-24T15:08:45.041Z,100614.06
2022-11-24T15:11:32.020Z,100623.59
2022-11-24T15:14:36.172Z,100630.38
2022-11-24T15:17:27.376Z,100621.91
2022-11-24T15:20:28.248Z,100636.56
2022-11-24T15:23:15.789Z,100649.13
2022-11-24T15:26:00.848Z,100651.28
2022-11-24T15:28:46.618Z,100648.94
2022-11-24T15:31:32.067Z,100636.25
2022-11-24T15:34:17.048Z,100633.69
2022-11-24T15:37:01.897Z,100627.25
2022-11-24T15:39:47.248Z,100630.69
2022-11-24T15:42:32.856Z,100634.78
2022-11-24T15:45:19.041Z,100634.09
2022-11-24T15:48:03.888Z,100635.41
2022-11-24T15:50:50.369Z,100638.00
2022-11-24T15:53:46.448Z,100635.84
2022-11-24T15:56:34.318Z,100639.50
2022-11-24T15:59:21.201Z,100650.22
2022-11-24T16:02:09.148Z,100649.22
2022-11-24T16:04:54.222Z,100651.22
2022-11-24T16:07:39.997Z,100657.94
2022-11-24T16:10:28.248Z,100655.44
2022-11-24T16:13:13.495Z,100663.66
2022-11-24T16:15:58.789Z,100663.97
2022-11-24T16:18:45.073Z,100662.44
2022-11-24T16:21:29.941Z,100673.25
2022-11-24T16:24:14.940Z,100668.44
2022-11-24T16:27:00.189Z,100660.72
2022-11-24T16:29:45.195Z,100662.59
2022-11-24T16:32:30.394Z,100659.28
2022-11-24T16:35:15.907Z,100661.84
2022-11-24T16:38:00.676Z,100670.38
2022-11-24T16:40:56.324Z,100681.22
2022-11-24T16:43:42.097Z,100671.41
2022-11-24T16:46:27.478Z,100658.56
2022-11-24T16:49:12.763Z,100663.34
2022-11-24T16:51:57.877Z,100663.38
2022-11-24T16:54:42.879Z,100672.16
2022-11-24T16:57:27.972Z,100665.44
2022-11-24T17:00:13.385Z,100672.06
2022-11-24T17:02:58.502Z,100683.44
2022-11-24T17:05:43.685Z,100671.19
2022-11-24T17:08:33.723Z,100673.63
2022-11-24T17:11:21.257Z,100672.44
2022-11-24T17:14:06.475Z,100664.44
2022-11-24T17:16:51.590Z,100666.22
2022-11-24T17:19:37.404Z,100671.25
2022-11-24T17:22:22.966Z,100682.94
2022-11-24T17:25:08.637Z,100696.81
2022-11-24T17:27:53.859Z,100704.16
2022-11-24T17:30:38.714Z,100701.81
2022-11-24T17:33:23.664Z,100707.50
2022-11-24T17:36:08.846Z,100699.28
2022-11-24T17:38:54.295Z,100701.09
2022-11-24T17:41:39.440Z,100699.97
2022-11-24T17:44:24.662Z,100701.34
2022-11-24T17:47:09.814Z,100701.09
2022-11-24T17:49:54.936Z,100714.63
2022-11-24T17:52:39.951Z,100710.88
2022-11-24T17:55:24.688Z,100708.19
2022-11-24T17:58:09.785Z,100723.78
2022-11-24T18:00:55.220Z,100732.19
2022-11-24T18:03:41.276Z,100723.28
2022-11-24T18:06:28.524Z,100728.69
2022-11-24T18:09:13.612Z,100732.97
2022-11-24T18:11:58.768Z,100730.81
2022-11-24T18:14:43.903Z,100734.91
2022-11-24T18:17:29.036Z,100729.84
2022-11-24T18:20:14.155Z,100727.31
2022-11-24T18:23:07.777Z,100720.66
2022-11-24T18:25:57.323Z,100727.13
2022-11-24T18:28:44.212Z,100707.41
2022-11-24T18:31:30.933Z,100712.38
2022-11-24T18:34:15.761Z,100704.47
2022-11-24T18:37:00.925Z,100700.47
2022-11-24T18:39:46.043Z,100702.63
2022-11-24T18:42:31.198Z,100699.09
2022-11-24T18:45:16.347Z,100704.75
2022-11-24T18:48:01.348Z,100698.91
2022-11-24T18:50:54.271Z,100707.06
2022-11-24T18:53:39.873Z,100714.13
2022-11-24T18:56:25.769Z,100716.03
2022-11-24T18:59:10.525Z,100720.19
2022-11-24T19:01:56.409Z,100724.41
2022-11-24T19:04:41.409Z,100722.13
2022-11-24T19:07:26.700Z,100725.09
2022-11-24T19:10:12.146Z,100729.25
2022-11-24T19:12:57.048Z,100730.72
2022-11-24T19:15:42.248Z,100726.38
2022-11-24T19:18:29.103Z,100729.00
2022-11-24T19:21:14.203Z,100721.88
2022-11-24T19:24:04.908Z,100712.50
2022-11-24T19:26:51.222Z,100714.63
2022-11-24T19:29:41.716Z,100719.53
2022-11-24T19:32:28.030Z,100707.78
2022-11-24T19:35:13.393Z,100713.03
2022-11-24T19:37:58.312Z,100710.66
2022-11-24T19:40:43.458Z,100712.78
2022-11-24T19:43:28.547Z,100728.81
2022-11-24T19:46:18.323Z,100727.63
2022-11-24T19:49:04.507Z,100725.81
2022-11-24T19:51:49.931Z,100726.50
2022-11-24T19:54:36.064Z,100731.94
2022-11-24T19:57:21.161Z,100728.13
2022-11-24T20:00:07.333Z,100734.44
2022-11-24T20:02:52.321Z,100731.50
2022-11-24T20:05:37.253Z,100728.91
2022-11-24T20:08:22.114Z,100724.59
2022-11-24T20:11:13.122Z,100733.16
2022-11-24T20:13:58.484Z,100735.69
2022-11-24T20:16:45.549Z,100732.44
2022-11-24T20:19:32.533Z,100733.41
2022-11-24T20:22:17.632Z,100732.44
2022-11-24T20:25:02.708Z,100734.28
2022-11-24T20:27:47.919Z,100736.66
2022-11-24T20:30:33.004Z,100740.72
2022-11-24T20:33:17.944Z,100744.72
2022-11-24T20:36:04.967Z,100744.50
2022-11-24T20:38:51.741Z,100740.25
2022-11-24T20:41:39.477Z,100737.41
2022-11-24T20:44:26.515Z,100736.66
2022-11-24T20:47:11.343Z,100741.66
2022-11-24T20:49:57.136Z,100730.22
2022-11-24T20:52:42.087Z,100741.41
2022-11-24T20:55:26.956Z,100740.38
2022-11-24T20:58:12.058Z,100734.53
2022-11-24T21:01:12.787Z,100740.50
2022-11-24T21:03:59.374Z,100731.91
2022-11-24T21:06:44.460Z,100731.09
2022-11-24T21:09:30.550Z,100728.00
2022-11-24T21:12:15.457Z,100724.63
2022-11-24T21:15:00.635Z,100720.13
2022-11-24T21:17:45.794Z,100715.13
2022-11-24T21:20:33.748Z,100725.47
2022-11-24T21:23:20.406Z,100720.13
2022-11-24T21:26:11.524Z,100726.19
2022-11-24T21:29:00.207Z,100723.94
2022-11-24T21:31:45.666Z,100725.84
2022-11-24T21:34:30.589Z,100733.81
2022-11-24T21:37:15.268Z,100730.00
2022-11-24T21:40:00.509Z,100734.91
2022-11-24T21:42:45.496Z,100731.19
2022-11-24T21:45:30.561Z,100732.41
2022-11-24T21:48:15.439Z,100724.19
2022-11-24T21:51:02.458Z,100726.09
2022-11-24T21:53:47.626Z,100718.81
2022-11-24T21:56:32.726Z,100716.44
2022-11-24T21:59:19.835Z,100727.41
2022-11-24T22:02:08.936Z,100717.75
2022-11-24T22:04:57.755Z,100712.84
2022-11-24T22:07:43.399Z,100706.31
2022-11-24T22:10:28.447Z,100704.03
2022-11-24T22:13:13.687Z,100707.25
2022-11-24T22:16:00.839Z,100699.72
2022-11-24T22:18:46.309Z,100709.03
2022-11-24T22:21:33.279Z,100704.41
2022-11-24T22:24:21.690Z,100709.13
2022-11-24T22:27:09.467Z,100699.38
2022-11-24T22:29:54.492Z,100706.03
2022-11-24T22:32:39.532Z,100698.41
2022-11-24T22:35:24.584Z,100698.91
2022-11-24T22:38:09.665Z,100691.03
2022-11-24T22:40:55.009Z,100696.97
2022-11-24T22:43:41.214Z,100694.47
2022-11-24T22:46:27.714Z,100690.66
2022-11-24T22:49:12.628Z,100695.78
2022-11-24T22:51:57.861Z,100690.78
2022-11-24T22:54:42.982Z,100690.06
2022-11-24T22:57:27.725Z,100687.56
2022-11-24T23:00:13.782Z,100679.25
2022-11-24T23:02:58.907Z,100684.59
2022-11-24T23:05:43.902Z,100685.69
2022-11-24T23:08:31.731Z,100687.47
2022-11-24T23:11:25.839Z,100692.34
2022-11-24T23:14:15.685Z,100691.03
2022-11-24T23:17:00.752Z,100690.19
2022-11-24T23:19:45.905Z,100679.72
2022-11-24T23:22:31.114Z,100681.41
2022-11-24T23:25:15.911Z,100676.13
2022-11-24T23:28:00.997Z,100679.56
2022-11-24T23:30:46.011Z,100689.09
2022-11-24T23:33:31.460Z,100689.44
2022-11-24T23:36:18.562Z,100689.06
2022-11-24T23:39:06.373Z,100689.53
2022-11-24T23:41:51.463Z,100694.44
2022-11-24T23:44:36.804Z,100694.38
2022-11-24T23:47:21.961Z,100698.19
2022-11-24T23:50:08.614Z,100696.28
2022-11-24T23:52:53.650Z,100692.34
2022-11-24T23:55:38.762Z,100694.97
2022-11-24T23:58:23.411Z,100691.84
